EGXU

RAF Linton-On-Ouse Airport

Linton-On-Ouse, United Kingdom
METAR EGXU 182350Z AUTO 32005KT 5000 // BKN027/// 02/02 Q1030
Observed Flight Rules
Nov-18 @ 23:50 UTC (an hour ago) Marginal Visual Flight Rules
Wind Visibility Clouds
320° at 5 knots 5,005 meters
  • Broken at 2,700' AGL
Temperatures Readings
Current 2°C / 36°F
Dewpoint 2°C / 36°F
Humidity 100%
Altimeter 30.41" Hg
Pressure 1030 hPa
Elevation 16
METAR EGXU 182350Z AUTO 32005KT 5000 // BKN027/// 02/02 Q1030
Observed Flight Rules
Nov-18 @ 23:50 UTC
(an hour ago)
MVFR
Wind Visibility
320° at 5 knots 5,005 meters
Clouds
  • Broken at 2,700' AGL
Temperature Dewpoint
2°C / 36°F 2°C / 36°F
Humidity Altimeter Pressure
100% 30.41" Hg 1030 hPa